Marine Rouge — JG5115 — position and weather

sailwx.info

Track history (hours):
 
Tides and Currents Weather Stations Pressure Air Temp Water Temp Dewpoint Dewpoint Depression Visibility Wind Speed Wind Dir Waves Ship Positions

Marine Rouge

Last reported at 2015-Jul-04 12:33 UTC. Time now 2015-Jul-05 00:14 UTC.
Position N 35°27' E 139°39'.

Length 52 m; draft 2.8 m.

Type: Passenger vessel. MMSI: 431000518.

Date/timePositionNaut miles runAvg speedWind from/ knotsBaromVisibWave heightAir tempDewpointWater temp
2015-Jul-04 12:33N 35°27' E 139°39'1 0.5
2015-Jul-04 11:34N 35°28' E 139°39'1 0.5
2015-Jul-04 10:33N 35°27' E 139°39'1 0.5
2015-Jul-04 09:33N 35°27' E 139°39'0 0.1
2015-Jul-04 08:34N 35°27' E 139°39'1 0.5
2015-Jul-04 07:34N 35°27' E 139°39'1 0.6
2015-Jul-04 06:33N 35°27' E 139°39'0 0.1
2015-Jul-04 05:33N 35°27' E 139°39'0 0.1
2015-Jul-04 04:33N 35°27' E 139°39'1 0.5
2015-Jul-04 03:33N 35°27' E 139°39'1 0.5
2015-Jul-04 02:33N 35°27' E 139°39'0 0.0
2015-Jul-04 01:33N 35°27' E 139°39'0 0.0
2015-Jul-04 00:33N 35°27' E 139°39'0 0.0
2015-Jul-03 12:29N 35°27' E 139°39'1 0.8
2015-Jul-03 11:33N 35°28' E 139°39'0 0.4
2015-Jul-03 10:33N 35°27' E 139°39'1 0.6
2015-Jul-03 09:33N 35°27' E 139°39'1 0.9
2015-Jul-03 08:33N 35°28' E 139°40'1 0.8
2015-Jul-03 07:33N 35°27' E 139°39'0 0.5
2015-Jul-03 06:33N 35°27' E 139°39'0 0.1
2015-Jul-03 05:34N 35°27' E 139°39'0 0.1
2015-Jul-03 04:33N 35°27' E 139°39'1 0.7
2015-Jul-03 03:33N 35°27' E 139°39'1 0.7
2015-Jul-03 02:34N 35°27' E 139°39'0 0.0
2015-Jul-03 01:33N 35°27' E 139°39'0 0.0
2015-Jul-03 00:33N 35°27' E 139°39'0 0.0
2015-Jul-02 12:28N 35°27' E 139°39'2 1.8
2015-Jul-02 11:33N 35°28' E 139°40'1 1.3
2015-Jul-02 10:33N 35°27' E 139°39'1 0.6
2015-Jul-02 09:33N 35°27' E 139°39'0 0.0
2015-Jul-02 08:33N 35°27' E 139°39'3 2.7
2015-Jul-02 07:33N 35°28' E 139°42'3 2.8
2015-Jul-02 06:33N 35°27' E 139°39'0 0.1
2015-Jul-02 05:34N 35°27' E 139°39'0 0.1
2015-Jul-02 04:33N 35°27' E 139°39'1 0.5
2015-Jul-02 03:34N 35°27' E 139°39'1 0.5
2015-Jul-02 02:33N 35°27' E 139°39'0 0.0
2015-Jul-02 01:33N 35°27' E 139°39'0 0.0
2015-Jul-02 00:33N 35°27' E 139°39'1 0.1
2015-Jul-01 11:33N 35°28' E 139°39'3 2.8
2015-Jul-01 10:33N 35°29' E 139°42'3 2.8
2015-Jul-01 09:33N 35°27' E 139°39'0 0.0
2015-Jul-01 08:33N 35°27' E 139°39'1 1.3
2015-Jul-01 07:33N 35°27' E 139°41'1 1.3
2015-Jul-01 06:33N 35°27' E 139°39'0 0.1
2015-Jul-01 05:34N 35°27' E 139°39'0 0.1
2015-Jul-01 04:33N 35°27' E 139°39'1 1.4
2015-Jul-01 03:33N 35°27' E 139°41'1 1.4
2015-Jul-01 02:33N 35°27' E 139°39'0 0.0
2015-Jul-01 01:33N 35°27' E 139°39'0 0.0
2015-Jun-30 12:26N 35°27' E 139°39'1 0.8
2015-Jun-30 11:34N 35°28' E 139°39'1 0.7
2015-Jun-30 10:34N 35°27' E 139°39'1 0.5
2015-Jun-30 09:34N 35°27' E 139°39'0 0.0
2015-Jun-30 08:34N 35°27' E 139°39'1 0.5
2015-Jun-30 07:34N 35°27' E 139°39'1 0.5
2015-Jun-30 06:34N 35°27' E 139°39'0 0.1
2015-Jun-30 05:34N 35°27' E 139°39'0 0.1
2015-Jun-30 04:33N 35°27' E 139°39'1 0.6
2015-Jun-30 03:34N 35°27' E 139°39'1 0.6
2015-Jun-30 02:34N 35°27' E 139°39'0 0.0
2015-Jun-30 01:34N 35°27' E 139°39'0 0.0
2015-Jun-30 00:34N 35°27' E 139°39'0 0.0
2015-Jun-29 12:28N 35°27' E 139°39'1 1.2
2015-Jun-29 11:33N 35°28' E 139°40'1 1.2
2015-Jun-29 10:33N 35°27' E 139°39'1 0.5
2015-Jun-29 09:34N 35°27' E 139°39'0 0.0
2015-Jun-29 08:33N 35°27' E 139°39'1 0.5
2015-Jun-29 07:33N 35°27' E 139°39'1 0.5
2015-Jun-29 06:33N 35°27' E 139°39'0 0.1
2015-Jun-29 05:33N 35°27' E 139°39'0 0.1
2015-Jun-29 04:33N 35°27' E 139°39'1 0.5
2015-Jun-29 03:34N 35°27' E 139°39'1 0.5
2015-Jun-29 02:34N 35°27' E 139°39'0 0.0
2015-Jun-29 01:33N 35°27' E 139°39'0 0.0
2015-Jun-29 00:33N 35°27' E 139°39'0 0.0
2015-Jun-28 10:31N 35°27' E 139°39'1 1.1
2015-Jun-28 09:34N 35°28' E 139°39'2 2.1
2015-Jun-28 08:33N 35°27' E 139°41'2 1.6
2015-Jun-28 07:33N 35°27' E 139°39'0 0.0
2015-Jun-28 06:33N 35°27' E 139°39'0 0.1
2015-Jun-28 05:34N 35°27' E 139°39'0 0.2
2015-Jun-28 04:33N 35°27' E 139°39'0 0.4
2015-Jun-28 03:34N 35°27' E 139°39'1 0.5
2015-Jun-28 02:33N 35°27' E 139°39'0 0.0
2015-Jun-28 01:33N 35°27' E 139°39'0 0.0
2015-Jun-27 12:29N 35°27' E 139°39'1 0.9
2015-Jun-27 11:33N 35°28' E 139°39'1 1.1
2015-Jun-27 10:33N 35°27' E 139°40'1 1.0
2015-Jun-27 09:33N 35°27' E 139°39'0 0.0
2015-Jun-27 08:33N 35°27' E 139°39'1 0.5
2015-Jun-27 07:34N 35°27' E 139°39'1 0.5
2015-Jun-27 06:33N 35°27' E 139°39'0 0.1
2015-Jun-27 05:34N 35°27' E 139°39'0 0.1
2015-Jun-27 04:33N 35°27' E 139°39'1 0.5
2015-Jun-27 03:34N 35°27' E 139°39'1 0.5
2015-Jun-27 02:33N 35°27' E 139°39'0 0.0
2015-Jun-27 01:33N 35°27' E 139°39'0 0.0
2015-Jun-27 00:33N 35°27' E 139°39'1 0.1
2015-Jun-26 12:33N 35°28' E 139°39'2 1.5
2015-Jun-26 11:33N 35°28' E 139°40'2 1.6
2015-Jun-26 10:33N 35°27' E 139°39'1 0.5
2015-Jun-26 09:33N 35°27' E 139°39'0 0.0
2015-Jun-26 08:33N 35°27' E 139°39'1 0.6
2015-Jun-26 07:33N 35°27' E 139°39'1 0.6
2015-Jun-26 06:33N 35°27' E 139°39'0 0.2
2015-Jun-26 05:34N 35°27' E 139°39'0 0.2
2015-Jun-26 04:33N 35°27' E 139°39'1 0.5
2015-Jun-26 03:33N 35°27' E 139°39'1 0.5
2015-Jun-26 02:33N 35°27' E 139°39'0 0.0
2015-Jun-26 01:33N 35°27' E 139°39'0 0.0
2015-Jun-26 00:33N 35°27' E 139°39'1 0.1
2015-Jun-25 11:33N 35°28' E 139°40'1 1.2
2015-Jun-25 10:33N 35°27' E 139°39'1 0.5
2015-Jun-25 09:33N 35°27' E 139°39'0 0.1
2015-Jun-25 08:34N 35°27' E 139°39'0 0.4
2015-Jun-25 07:34N 35°27' E 139°39'1 0.5
2015-Jun-25 06:33N 35°27' E 139°39'0 0.1
2015-Jun-25 05:34N 35°27' E 139°39'0 0.1
2015-Jun-25 04:34N 35°27' E 139°39'0 0.5
2015-Jun-25 03:33N 35°27' E 139°39'1 0.5
2015-Jun-25 02:33N 35°27' E 139°39'0 0.0
2015-Jun-25 01:33N 35°27' E 139°39'  
Track history (hours):
 
Tides and Currents Weather Stations Pressure Air Temp Water Temp Dewpoint Dewpoint Depression Visibility Wind Speed Wind Dir Waves Ship Positions

Marine Rouge

Last reported at 2015-Jul-04 12:33 UTC. Time now 2015-Jul-05 00:14 UTC.
Position N 35°27' E 139°39'.

Length 52 m; draft 2.8 m.

Type: Passenger vessel. MMSI: 431000518.

Date/timePositionNaut miles runAvg speedWind from/ knotsBaromVisibWave heightAir tempDewpointWater temp
2015-Jul-04 12:33N 35°27' E 139°39'1 0.5
2015-Jul-04 11:34N 35°28' E 139°39'1 0.5
2015-Jul-04 10:33N 35°27' E 139°39'1 0.5
2015-Jul-04 09:33N 35°27' E 139°39'0 0.1
2015-Jul-04 08:34N 35°27' E 139°39'1 0.5
2015-Jul-04 07:34N 35°27' E 139°39'1 0.6
2015-Jul-04 06:33N 35°27' E 139°39'0 0.1
2015-Jul-04 05:33N 35°27' E 139°39'0 0.1
2015-Jul-04 04:33N 35°27' E 139°39'1 0.5
2015-Jul-04 03:33N 35°27' E 139°39'1 0.5
2015-Jul-04 02:33N 35°27' E 139°39'0 0.0
2015-Jul-04 01:33N 35°27' E 139°39'0 0.0
2015-Jul-04 00:33N 35°27' E 139°39'0 0.0
2015-Jul-03 12:29N 35°27' E 139°39'1 0.8
2015-Jul-03 11:33N 35°28' E 139°39'0 0.4
2015-Jul-03 10:33N 35°27' E 139°39'1 0.6
2015-Jul-03 09:33N 35°27' E 139°39'1 0.9
2015-Jul-03 08:33N 35°28' E 139°40'1 0.8
2015-Jul-03 07:33N 35°27' E 139°39'0 0.5
2015-Jul-03 06:33N 35°27' E 139°39'0 0.1
2015-Jul-03 05:34N 35°27' E 139°39'0 0.1
2015-Jul-03 04:33N 35°27' E 139°39'1 0.7
2015-Jul-03 03:33N 35°27' E 139°39'1 0.7
2015-Jul-03 02:34N 35°27' E 139°39'0 0.0
2015-Jul-03 01:33N 35°27' E 139°39'0 0.0
2015-Jul-03 00:33N 35°27' E 139°39'0 0.0
2015-Jul-02 12:28N 35°27' E 139°39'2 1.8
2015-Jul-02 11:33N 35°28' E 139°40'1 1.3
2015-Jul-02 10:33N 35°27' E 139°39'1 0.6
2015-Jul-02 09:33N 35°27' E 139°39'0 0.0
2015-Jul-02 08:33N 35°27' E 139°39'3 2.7
2015-Jul-02 07:33N 35°28' E 139°42'3 2.8
2015-Jul-02 06:33N 35°27' E 139°39'0 0.1
2015-Jul-02 05:34N 35°27' E 139°39'0 0.1
2015-Jul-02 04:33N 35°27' E 139°39'1 0.5
2015-Jul-02 03:34N 35°27' E 139°39'1 0.5
2015-Jul-02 02:33N 35°27' E 139°39'0 0.0
2015-Jul-02 01:33N 35°27' E 139°39'0 0.0
2015-Jul-02 00:33N 35°27' E 139°39'1 0.1
2015-Jul-01 11:33N 35°28' E 139°39'3 2.8
2015-Jul-01 10:33N 35°29' E 139°42'3 2.8
2015-Jul-01 09:33N 35°27' E 139°39'0 0.0
2015-Jul-01 08:33N 35°27' E 139°39'1 1.3
2015-Jul-01 07:33N 35°27' E 139°41'1 1.3
2015-Jul-01 06:33N 35°27' E 139°39'0 0.1
2015-Jul-01 05:34N 35°27' E 139°39'0 0.1
2015-Jul-01 04:33N 35°27' E 139°39'1 1.4
2015-Jul-01 03:33N 35°27' E 139°41'1 1.4
2015-Jul-01 02:33N 35°27' E 139°39'0 0.0
2015-Jul-01 01:33N 35°27' E 139°39'0 0.0
2015-Jun-30 12:26N 35°27' E 139°39'1 0.8
2015-Jun-30 11:34N 35°28' E 139°39'1 0.7
2015-Jun-30 10:34N 35°27' E 139°39'1 0.5
2015-Jun-30 09:34N 35°27' E 139°39'0 0.0
2015-Jun-30 08:34N 35°27' E 139°39'1 0.5
2015-Jun-30 07:34N 35°27' E 139°39'1 0.5
2015-Jun-30 06:34N 35°27' E 139°39'0 0.1
2015-Jun-30 05:34N 35°27' E 139°39'0 0.1
2015-Jun-30 04:33N 35°27' E 139°39'1 0.6
2015-Jun-30 03:34N 35°27' E 139°39'1 0.6
2015-Jun-30 02:34N 35°27' E 139°39'0 0.0
2015-Jun-30 01:34N 35°27' E 139°39'0 0.0
2015-Jun-30 00:34N 35°27' E 139°39'0 0.0
2015-Jun-29 12:28N 35°27' E 139°39'1 1.2
2015-Jun-29 11:33N 35°28' E 139°40'1 1.2
2015-Jun-29 10:33N 35°27' E 139°39'1 0.5
2015-Jun-29 09:34N 35°27' E 139°39'0 0.0
2015-Jun-29 08:33N 35°27' E 139°39'1 0.5
2015-Jun-29 07:33N 35°27' E 139°39'1 0.5
2015-Jun-29 06:33N 35°27' E 139°39'0 0.1
2015-Jun-29 05:33N 35°27' E 139°39'0 0.1
2015-Jun-29 04:33N 35°27' E 139°39'1 0.5
2015-Jun-29 03:34N 35°27' E 139°39'1 0.5
2015-Jun-29 02:34N 35°27' E 139°39'0 0.0
2015-Jun-29 01:33N 35°27' E 139°39'0 0.0
2015-Jun-29 00:33N 35°27' E 139°39'0 0.0
2015-Jun-28 10:31N 35°27' E 139°39'1 1.1
2015-Jun-28 09:34N 35°28' E 139°39'2 2.1
2015-Jun-28 08:33N 35°27' E 139°41'2 1.6
2015-Jun-28 07:33N 35°27' E 139°39'0 0.0
2015-Jun-28 06:33N 35°27' E 139°39'0 0.1
2015-Jun-28 05:34N 35°27' E 139°39'0 0.2
2015-Jun-28 04:33N 35°27' E 139°39'0 0.4
2015-Jun-28 03:34N 35°27' E 139°39'1 0.5
2015-Jun-28 02:33N 35°27' E 139°39'0 0.0
2015-Jun-28 01:33N 35°27' E 139°39'0 0.0
2015-Jun-27 12:29N 35°27' E 139°39'1 0.9
2015-Jun-27 11:33N 35°28' E 139°39'1 1.1
2015-Jun-27 10:33N 35°27' E 139°40'1 1.0
2015-Jun-27 09:33N 35°27' E 139°39'0 0.0
2015-Jun-27 08:33N 35°27' E 139°39'1 0.5
2015-Jun-27 07:34N 35°27' E 139°39'1 0.5
2015-Jun-27 06:33N 35°27' E 139°39'0 0.1
2015-Jun-27 05:34N 35°27' E 139°39'0 0.1
2015-Jun-27 04:33N 35°27' E 139°39'1 0.5
2015-Jun-27 03:34N 35°27' E 139°39'1 0.5
2015-Jun-27 02:33N 35°27' E 139°39'0 0.0
2015-Jun-27 01:33N 35°27' E 139°39'0 0.0
2015-Jun-27 00:33N 35°27' E 139°39'1 0.1
2015-Jun-26 12:33N 35°28' E 139°39'2 1.5
2015-Jun-26 11:33N 35°28' E 139°40'2 1.6
2015-Jun-26 10:33N 35°27' E 139°39'1 0.5
2015-Jun-26 09:33N 35°27' E 139°39'0 0.0
2015-Jun-26 08:33N 35°27' E 139°39'1 0.6
2015-Jun-26 07:33N 35°27' E 139°39'1 0.6
2015-Jun-26 06:33N 35°27' E 139°39'0 0.2
2015-Jun-26 05:34N 35°27' E 139°39'0 0.2
2015-Jun-26 04:33N 35°27' E 139°39'1 0.5
2015-Jun-26 03:33N 35°27' E 139°39'1 0.5
2015-Jun-26 02:33N 35°27' E 139°39'0 0.0
2015-Jun-26 01:33N 35°27' E 139°39'0 0.0
2015-Jun-26 00:33N 35°27' E 139°39'1 0.1
2015-Jun-25 11:33N 35°28' E 139°40'1 1.2
2015-Jun-25 10:33N 35°27' E 139°39'1 0.5
2015-Jun-25 09:33N 35°27' E 139°39'0 0.1
2015-Jun-25 08:34N 35°27' E 139°39'0 0.4
2015-Jun-25 07:34N 35°27' E 139°39'1 0.5
2015-Jun-25 06:33N 35°27' E 139°39'0 0.1
2015-Jun-25 05:34N 35°27' E 139°39'0 0.1
2015-Jun-25 04:34N 35°27' E 139°39'0 0.5
2015-Jun-25 03:33N 35°27' E 139°39'1 0.5
2015-Jun-25 02:33N 35°27' E 139°39'0 0.0
2015-Jun-25 01:33N 35°27' E 139°39'  

Dump ship's entire track history